Weather observations for the past three days for
Elbert Mountain - Monument Pass
Imperial (Metric)
Date Time (mdt) Wind (mph) Vis. (mi.) Weather Sky Cond. Temperature (ºF) Relative Humidity Wind Chill (°F) Heat Index (°F) Pressure Precipitation (in)
Air Dwpt 6 hour altimeter (in) sea level (mb) 1 hr 3 hr 6 hr
Max. Min.
01 15:15 Calm 10.00 Partly Cloudy SCT100 75.2 37.4 25% 77 30.22 0.0
01 14:55 Calm 10.00 Partly Cloudy SCT100 75.2 37.4 25% 77 30.24 0.0
01 14:35 Calm 10.00 Partly Cloudy SCT090 77 39.2 26% 77 30.24 0.0
01 14:15 W 5 10.00 Partly Cloudy SCT090 78.8 41 26% 78 30.25 0.0
01 13:55 Calm 10.00 Partly Cloudy SCT090 77 41 28% 78 30.25 0.0
01 13:35 NW 6 10.00 Partly Cloudy SCT080 73.4 41 31% 30.25 0.0
01 13:15 W 5 10.00 Partly Cloudy SCT080 77 41 28% 78 30.26 0.0
01 12:55 SW 9 10.00 Fair CLR 77 41 28% 78 30.26 0.0
01 12:35 NW 3 10.00 Fair CLR 77 41 28% 78 30.27 0.0
01 12:15 S 7 10.00 Fair CLR 73.4 42.8 33% 30.28 0.0
01 11:55 SW 8 10.00 Fair CLR 73.4 42.8 33% 30.29 0.0
01 11:35 SW 9 10.00 Fair CLR 73.4 44.6 36% 30.29 0.0
01 11:15 SW 15 10.00 Fair CLR 69.8 44.6 40% 30.3 0.0
01 10:55 SW 13 G 17 10.00 Fair CLR 68 46.4 46% 30.31 0.0
01 10:35 SW 12 10.00 Fair CLR 66.2 46.4 49% 30.3 0.0
01 10:15 SW 13 10.00 Fair CLR 64.4 46.4 52% 30.3 0.0
01 09:55 SW 15 10.00 Partly Cloudy SCT120 62.6 46.4 56% 30.3 0.0
01 09:35 SW 15 10.00 Partly Cloudy SCT120 62.6 46.4 56% 30.3 0.0
01 09:15 SW 13 10.00 Fair CLR 62.6 46.4 56% 30.29 0.0
01 08:55 SW 16 G 23 10.00 Fair CLR 62.6 46.4 56% 30.29 0.0
01 08:35 SW 15 10.00 Partly Cloudy SCT120 62.6 46.4 56% 30.28 0.0
01 08:15 SW 10 10.00 Partly Cloudy SCT120 60.8 48.2 63% 30.28 0.0
01 07:55 SW 9 10.00 Partly Cloudy SCT120 59 50 72% 30.27 0.0
01 07:35 SW 7 10.00 Partly Cloudy SCT120 59 50 72% 30.27 0.0
01 07:15 SW 9 10.00 Partly Cloudy SCT120 59 50 72% 30.26 0.0
01 06:55 SW 9 10.00 Partly Cloudy SCT120 57.2 51.8 82% 30.25 0.0
01 06:35 SW 10 10.00 Fair CLR 57.2 51.8 82% 30.25 0.0
01 06:15 SW 9 10.00 Fair CLR 55.4 51.8 88% 30.24 0.0
01 05:55 SW 6 10.00 Partly Cloudy SCT110 55.4 50 82% 30.24 0.0
01 05:35 SW 7 10.00 Fair CLR 55.4 51.8 88% 30.25 0.0
01 05:15 S 7 10.00 Partly Cloudy SCT120 55.4 51.8 88% 30.25 0.0
01 04:55 S 5 10.00 Mostly Cloudy BKN120 55.4 51.8 88% 30.25 0.0
01 04:35 S 6 10.00 Overcast OVC110 55.4 51.8 88% 30.26 0.0
01 04:15 S 6 10.00 Mostly Cloudy BKN110 55.4 50 82% 30.26 0.0
01 03:55 S 6 10.00 Mostly Cloudy BKN120 57.2 50 77% 30.26 0.0
01 03:35 S 8 10.00 Partly Cloudy SCT120 55.4 50 82% 30.28 0.0
01 03:15 S 7 10.00 Mostly Cloudy BKN120 57.2 50 77% 30.27 0.0
01 02:55 S 6 10.00 Overcast OVC120 55.4 50 82% 30.28 0.0
01 02:35 S 3 10.00 Overcast SCT100 OVC120 57.2 50 77% 30.28 0.0
01 02:15 S 3 10.00 Overcast SCT100 OVC120 57.2 50 77% 30.3 0.0
01 01:55 SW 3 10.00 Overcast SCT100 OVC120 57.2 50 77% 30.3 0.0
01 01:35 Calm 10.00 Overcast OVC110 55.4 50 82% 30.3 0.0
01 01:15 Calm 10.00 Overcast OVC110 57.2 50 77% 30.3 0.0
01 00:55 Calm 10.00 Partly Cloudy SCT100 55.4 50 82% 30.3 0.0
01 00:35 Calm 10.00 Fair CLR 55.4 48.2 77% 30.29 0.0
01 00:15 SE 5 10.00 Fair CLR 57.2 50 77% 30.29 0.0
31 23:55 Calm 10.00 Fair CLR 59 48.2 68% 30.3 0.0
31 23:35 Calm 10.00 Fair CLR 59 48.2 68% 30.3 0.0
31 23:15 Calm 10.00 Fair CLR 57.2 50 77% 30.31 0.0
31 22:55 SE 3 10.00 Fair CLR 57.2 50 77% 30.31 0.0
31 22:35 SE 8 10.00 Fair CLR 55.4 50 82% 30.31 0.0
31 22:15 Calm 10.00 Partly Cloudy SCT110 55.4 50 82% 30.31 0.0
31 21:55 W 3 10.00 Partly Cloudy SCT110 59 50 72% 30.32 0.0
31 21:35 W 5 10.00 Mostly Cloudy SCT090 BKN110 59 50 72% 30.32 0.0
31 21:15 W 6 10.00 Overcast BKN100 OVC110 60.8 50 68% 30.32 0.0
31 20:55 W 7 10.00 Overcast OVC090 60.8 50 68% 30.31 0.0
31 20:35 W 14 G 22 10.00 Overcast OVC090 62.6 50 64% 30.31 0.0
31 19:55 Calm 10.00 Mostly Cloudy BKN110 64.4 46.4 52% 30.26 0.0
31 19:35 S 8 10.00 Fair CLR 66.2 46.4 49% 30.25 0.0
31 19:15 SE 8 10.00 Fair CLR 68 46.4 46% 30.24 0.0
31 18:55 SE 10 10.00 Fair CLR 68 46.4 46% 30.24 0.0
31 18:35 SE 13 G 18 10.00 Partly Cloudy SCT085 69.8 46.4 43% 30.25 0.0
31 18:15 SE 9 10.00 Partly Cloudy SCT080 SCT085 73.4 46.4 38% 30.25 0.0
31 17:35 E 12 G 16 10.00 Fair CLR 75.2 46.4 36% 77 30.25 0.0
31 17:15 E 6 10.00 Partly Cloudy SCT080 73.4 44.6 36% 30.26 0.0
31 16:55 E 6 10.00 Fair CLR 75.2 44.6 34% 77 30.26 0.0
31 16:35 E 5 10.00 Fair CLR 73.4 42.8 33% 30.27 0.0
31 16:15 SE 8 10.00 Fair CLR 77 42.8 30% 78 30.28 0.0
31 15:55 E 6 10.00 Partly Cloudy SCT085 77 42.8 30% 78 30.28 0.0
31 15:35 E 8 10.00 Mostly Cloudy BKN085 75.2 42.8 31% 77 30.28 0.0
31 15:15 E 5 10.00 Overcast OVC095 75.2 42.8 31% 77 30.3 0.0
31 14:55 E 8 10.00 Overcast OVC095 73.4 42.8 33% 30.3 0.0
31 14:35 E 7 10.00 Overcast OVC095 73.4 42.8 33% 30.3 0.0
31 14:15 Calm 10.00 Overcast SCT060 SCT075 OVC095 73.4 41 31% 30.31 0.0
31 13:55 NW 5 10.00 Overcast SCT037 BKN065 OVC075 73.4 42.8 33% 30.32 0.0
31 13:35 Calm 10.00 Overcast SCT044 SCT075 OVC090 73.4 41 31% 30.32 0.0
31 13:15 E 6 10.00 Mostly Cloudy BKN100 75.2 42.8 31% 77 30.32 0.0
31 12:55 N 5 10.00 Partly Cloudy SCT100 SCT110 75.2 41 29% 77 30.33 0.0
31 12:35 N 5 10.00 Partly Cloudy SCT100 SCT120 73.4 42.8 33% 30.33 0.0
31 12:15 E 5 10.00 Overcast BKN100 OVC120 73.4 41 31% 30.33 0.0
31 11:55 NE 3 10.00 Mostly Cloudy BKN110 73.4 41 31% 30.34 0.0
31 11:35 Calm 10.00 Partly Cloudy SCT120 73.4 42.8 33% 30.34 0.0
31 11:15 Calm 10.00 Fair CLR 71.6 42.8 36% 30.34 0.0
31 10:55 Calm 10.00 Fair CLR 71.6 42.8 36% 30.34 0.0
31 10:35 Calm 10.00 Fair CLR 71.6 42.8 36% 30.34 0.0
31 10:15 NW 3 10.00 Fair CLR 71.6 44.6 38% 30.34 0.0
31 09:55 Calm 10.00 Fair CLR 71.6 44.6 38% 30.33 0.0
31 09:35 SW 3 10.00 Fair CLR 68 46.4 46% 30.33 0.0
31 09:15 SW 6 10.00 Fair CLR 64.4 46.4 52% 30.33 0.0
31 08:55 S 5 10.00 Fair CLR 64.4 48.2 56% 30.32 0.0
31 08:35 S 5 10.00 Fair CLR 62.6 48.2 60% 30.32 0.0
31 08:15 SW 7 10.00 Fair CLR 64.4 44.6 49% 30.32 0.0
31 07:55 SW 9 10.00 Fair CLR 62.6 44.6 52% 30.32 0.0
31 07:35 S 9 10.00 Fair CLR 60.8 44.6 55% 30.31 0.0
31 07:15 S 5 10.00 Fair CLR 60.8 42.8 52% 30.3 0.0
31 06:55 SW 8 10.00 Fair CLR 55.4 42.8 63% 30.29 0.0
31 06:35 W 6 10.00 Fair CLR 55.4 42.8 63% 30.29 0.0
31 06:15 W 3 10.00 Fair CLR 55.4 42.8 63% 30.28 0.0
31 05:55 SW 6 10.00 Fair CLR 59 42.8 55% 30.28 0.0
31 05:35 SW 10 10.00 Fair CLR 59 42.8 55% 30.28 0.0
31 05:15 SW 9 10.00 Fair CLR 60.8 42.8 52% 30.27 0.0
31 04:55 SW 12 10.00 Fair CLR 55.4 44.6 67% 30.27 0.0
31 04:35 S 8 10.00 Fair CLR 57.2 44.6 63% 30.27 0.0
31 04:15 SW 7 10.00 Fair CLR 57.2 44.6 63% 30.27 0.0
31 03:55 W 9 10.00 Fair CLR 59 44.6 59% 30.27 0.0
31 03:35 W 8 10.00 Fair CLR 57.2 44.6 63% 30.26 0.0
31 03:15 S 5 10.00 Fair CLR 55.4 46.4 72% 30.27 0.0
31 02:55 Calm 10.00 Fair CLR 53.6 46.4 77% 30.27 0.0
31 02:35 Calm 10.00 Fair CLR 53.6 46.4 77% 30.27 0.0
31 02:15 SE 7 10.00 Fair CLR 53.6 46.4 77% 30.28 0.0
31 01:55 SW 5 10.00 Fair CLR 53.6 46.4 77% 30.28 0.0
31 01:35 SW 8 10.00 Fair CLR 55.4 46.4 72% 30.29 0.0
31 01:15 SW 12 10.00 Fair CLR 55.4 48.2 77% 30.28 0.0
31 00:55 SW 8 10.00 Fair CLR 55.4 48.2 77% 30.29 0.0
31 00:35 S 9 10.00 Fair CLR 59 48.2 68% 30.29 0.0
31 00:15 W 6 10.00 Fair CLR 57.2 50 77% 30.3 0.0
30 23:55 S 9 10.00 Partly Cloudy SCT120 57.2 50 77% 30.31 0.0
30 23:35 S 7 10.00 Mostly Cloudy SCT090 BKN120 55.4 51.8 88% 30.32 0.0
30 23:15 SE 9 10.00 Light Drizzle SCT080 BKN090 OVC110 57.2 51.8 82% 30.31 0.0
30 22:55 NW 6 G 16 10.00 Light Drizzle BKN080 OVC095 59 50 72% 30.32 0.0
30 22:35 SW 16 G 22 10.00 Drizzle OVC080 59 50 72% 30.35 0.0
30 22:15 SW 16 G 21 10.00 Light Rain BKN080 BKN120 62.6 46.4 56% 30.33 0.0
30 21:55 SW 6 10.00 Partly Cloudy SCT120 60.8 46.4 59% 30.3 0.0
30 21:35 SW 6 10.00 Fair CLR 60.8 46.4 59% 30.3 0.0
30 21:15 Calm 10.00 Thunderstorm in Vicinity CLR 60.8 50 68% 30.3 0.0
30 20:55 SW 8 10.00 Partly Cloudy SCT090 60.8 50 68% 30.3 0.0
30 20:35 S 7 10.00 Mostly Cloudy BKN090 59 50 72% 30.28 0.0
30 20:15 S 6 10.00 Overcast OVC090 60.8 51.8 72% 30.27 0.0
30 19:55 S 6 10.00 Mostly Cloudy BKN100 59 51.8 77% 30.26 0.0
30 19:35 S 5 10.00 Partly Cloudy SCT110 59 53.6 82% 30.26 0.0
30 19:15 Calm 10.00 Partly Cloudy SCT110 60.8 53.6 77% 30.26 0.0
30 18:55 S 3 10.00 Partly Cloudy SCT120 60.8 53.6 77% 30.27 0.0
30 18:35 Calm 10.00 Mostly Cloudy SCT090 BKN120 60.8 53.6 77% 30.27 0.0
30 18:15 W 3 10.00 Mostly Cloudy SCT075 SCT090 BKN120 60.8 53.6 77% 30.28 0.0
30 17:55 W 6 10.00 Mostly Cloudy BKN075 BKN090 60.8 53.6 77% 30.29 0.0
30 17:35 NE 5 7.00 Overcast BKN075 OVC090 60.8 51.8 72% 30.28 0.0
30 17:15 N 5 10.00 Thunderstorm in Vicinity SCT034 SCT043 BKN090 59 51.8 77% 30.29 0.0
30 16:55 NW 8 10.00 Light Rain SCT039 OVC085 59 51.8 77% 30.29 0.0
30 16:35 NW 9 10.00 Light Rain SCT045 OVC085 60.8 50 68% 30.3 0.0
30 16:15 NW 17 G 29 10.00 Light Rain SCT045 OVC085 62.6 46.4 56% 30.27 0.0
30 15:55 NW 23 G 29 10.00 Mostly Cloudy and Breezy SCT095 BKN120 73.4 46.4 38% 30.26 0.0
30 15:35 SE 3 10.00 Fair CLR 73.4 46.4 38% 30.22 0.0
30 15:15 S 7 10.00 Fair CLR 75.2 46.4 36% 77 30.23 0.0
30 14:55 SW 6 10.00 Fair CLR 77 44.6 32% 78 30.22 0.0
30 14:35 SW 7 10.00 Fair CLR 77 44.6 32% 78 30.23 0.0
30 14:15 SW 9 10.00 Fair CLR 77 44.6 32% 78 30.22 0.0
30 13:55 SW 5 10.00 Fair CLR 77 46.4 34% 78 30.22 0.0
30 13:35 SW 5 10.00 Fair CLR 77 44.6 32% 78 30.23 0.0
30 13:15 S 6 10.00 Fair CLR 77 44.6 32% 78 30.24 0.0
30 12:55 W 5 10.00 Fair CLR 78.8 44.6 30% 79 30.24 0.0
30 12:35 SW 8 10.00 Partly Cloudy SCT120 77 42.8 30% 78 30.25 0.0
30 12:15 W 6 10.00 Fair CLR 77 42.8 30% 78 30.25 0.0
30 11:55 W 6 10.00 Fair CLR 77 44.6 32% 78 30.25 0.0
30 11:35 SW 12 G 17 10.00 Fair CLR 77 46.4 34% 78 30.26 0.0
30 11:15 W 10 10.00 Fair CLR 77 46.4 34% 78 30.27 0.0
30 10:55 W 12 G 16 10.00 Fair CLR 73.4 46.4 38% 30.27 0.0
30 10:35 SW 9 10.00 Fair CLR 71.6 46.4 41% 30.26 0.0
30 10:15 SW 7 10.00 Fair CLR 69.8 48.2 46% 30.26 0.0
30 09:55 SW 8 10.00 Fair CLR 68 46.4 46% 30.26 0.0
30 09:35 SW 7 10.00 Fair CLR 66.2 50 56% 30.25 0.0
30 09:15 S 5 10.00 Fair CLR 64.4 50 60% 30.25 0.0
30 08:55 SW 6 10.00 Fair CLR 64.4 50 60% 30.25 0.0
30 08:35 SW 9 10.00 Fair CLR 62.6 48.2 60% 30.25 0.0
30 08:15 SW 9 10.00 Fair CLR 62.6 48.2 60% 30.25 0.0
30 07:35 S 6 10.00 Fair CLR 59 48.2 68% 30.25 0.0
30 07:15 S 8 10.00 Fair CLR 59 46.4 63% 30.24 0.0
30 06:55 S 8 10.00 Fair CLR 59 46.4 63% 30.24 0.0
30 06:15 SE 6 10.00 Fair CLR 53.6 46.4 77% 30.22 0.0
30 05:55 S 6 10.00 Fair CLR 55.4 46.4 72% 30.22 0.0
30 05:35 S 7 10.00 Fair CLR 55.4 46.4 72% 30.22 0.0
30 05:15 S 6 10.00 Fair CLR 55.4 46.4 72% 30.22 0.0
30 04:55 S 6 10.00 Fair CLR 55.4 46.4 72% 30.22 0.0
30 04:35 S 9 10.00 Fair CLR 59 46.4 63% 30.21 0.0
30 04:15 S 9 10.00 Fair CLR 59 46.4 63% 30.21 0.0
30 03:55 S 9 10.00 Fair CLR 59 46.4 63% 30.22 0.0
30 03:35 S 8 10.00 Fair CLR 59 46.4 63% 30.22 0.0
30 03:15 S 7 10.00 Fair CLR 60.8 46.4 59% 30.22 0.0
30 02:55 SE 8 10.00 Partly Cloudy SCT090 60.8 46.4 59% 30.22 0.0
30 02:35 SE 8 10.00 Partly Cloudy SCT090 59 46.4 63% 30.22 0.0
30 02:15 SE 6 10.00 Fair CLR 59 46.4 63% 30.21 0.0
30 01:55 S 6 10.00 Fair CLR 60.8 46.4 59% 30.22 0.0
30 01:35 SE 5 10.00 Fair CLR 57.2 48.2 72% 30.22 0.0
30 01:15 S 3 10.00 Fair CLR 59 48.2 68% 30.24 0.0
30 00:55 S 5 10.00 Fair CLR 57.2 48.2 72% 30.25 0.0
30 00:35 S 3 10.00 Fair CLR 57.2 48.2 72% 30.25 0.0
30 00:15 S 6 10.00 Fair CLR 55.4 48.2 77% 30.26 0.0
29 23:55 S 3 10.00 Fair CLR 55.4 48.2 77% 30.26 0.0
29 23:35 S 3 10.00 Partly Cloudy SCT120 55.4 48.2 77% 30.27 0.0
29 23:15 Calm 10.00 Fair CLR 57.2 46.4 67% 30.28 0.0
29 22:55 E 5 10.00 Fair CLR 57.2 48.2 72% 30.27 0.0
29 22:35 E 5 10.00 Fair CLR 59 48.2 68% 30.28 0.0
29 22:15 NE 7 10.00 Fair CLR 59 50 72% 30.28 0.0
29 21:55 NE 3 10.00 Fair CLR 59 50 72% 30.29 0.0
29 21:35 Calm 10.00 Fair CLR 60.8 48.2 63% 30.27 0.0
29 21:15 Calm 10.00 Fair CLR 59 48.2 68% 30.25 0.0
29 20:55 S 6 10.00 Fair CLR 60.8 48.2 63% 30.25 0.0
29 20:35 Calm 10.00 Fair CLR 59 50 72% 30.25 0.0
29 20:15 Calm 10.00 Fair CLR 64.4 48.2 56% 30.25 0.0
29 19:55 N 3 10.00 Partly Cloudy SCT110 64.4 48.2 56% 30.24 0.0
29 19:35 N 6 10.00 Partly Cloudy SCT110 66.2 48.2 52% 30.24 0.0
29 19:15 N 6 10.00 Partly Cloudy SCT120 68 48.2 49% 30.23 0.0
29 18:55 N 5 10.00 Fair CLR 71.6 44.6 38% 30.23 0.0
29 18:35 Calm 10.00 Fair CLR 71.6 44.6 38% 30.22 0.0
29 18:15 NW 3 10.00 Fair CLR 73.4 42.8 33% 30.22 0.0
29 17:55 W 8 10.00 Partly Cloudy SCT120 71.6 42.8 36% 30.23 0.0
29 17:35 W 18 G 25 10.00 Partly Cloudy SCT120 71.6 42.8 36% 30.23 0.0
29 17:15 W 24 G 30 10.00 Partly Cloudy and Breezy SCT110 73.4 46.4 38% 30.25 0.0
29 16:55 S 20 G 30 10.00 Partly Cloudy SCT100 78.8 46.4 32% 79 30.21 0.0
29 16:35 S 5 10.00 Fair CLR 80.6 44.6 28% 79 30.2 0.0
29 16:15 SE 7 10.00 Fair CLR 82.4 42.8 25% 80 30.21 0.0
29 15:55 Calm 10.00 Fair CLR 82.4 42.8 25% 80 30.21 0.0
Date Time (mdt) Wind (mph) Vis. (mi.) Weather Sky Cond. Air Dwpt Max. Min. Relative Humidity Wind Chill (°F) Heat Index (°F) altimeter (in) sea level (mb) 1 hr 3 hr 6 hr
6 hour
Temperature (ºF) Pressure Precipitation (in)